createdAt,value
2022-11-24T00:00:30.845Z,67.45
2022-11-24T00:05:38.702Z,67.70
2022-11-24T00:10:41.819Z,68.00
2022-11-24T00:15:44.928Z,67.80
2022-11-24T00:20:54.097Z,67.30
2022-11-24T00:26:13.508Z,67.50
2022-11-24T00:31:28.058Z,68.08
2022-11-24T00:36:33.257Z,66.56
2022-11-24T00:41:36.343Z,67.74
2022-11-24T00:46:39.654Z,66.97
2022-11-24T00:51:43.118Z,67.94
2022-11-24T00:56:46.318Z,68.74
2022-11-24T01:01:49.470Z,68.09
2022-11-24T01:06:52.773Z,68.12
2022-11-24T01:12:01.886Z,67.03
2022-11-24T01:17:05.045Z,66.68
2022-11-24T01:22:08.414Z,66.40
2022-11-24T01:27:11.781Z,66.70
2022-11-24T01:32:14.834Z,66.72
2022-11-24T01:37:17.941Z,68.03
2022-11-24T01:42:21.053Z,66.39
2022-11-24T01:47:36.847Z,65.51
2022-11-24T01:52:49.967Z,65.25
2022-11-24T01:57:57.889Z,65.32
2022-11-24T02:03:01.140Z,65.96
2022-11-24T02:08:06.681Z,66.87
2022-11-24T02:13:10.120Z,65.79
2022-11-24T02:18:13.539Z,66.41
2022-11-24T02:23:49.077Z,67.09
2022-11-24T02:28:53.129Z,68.02
2022-11-24T02:33:56.506Z,67.88
2022-11-24T02:38:59.758Z,68.23
2022-11-24T02:44:03.086Z,67.80
2022-11-24T02:49:06.348Z,69.12
2022-11-24T02:54:09.544Z,69.36
2022-11-24T02:59:12.609Z,68.09
2022-11-24T03:04:15.760Z,68.67
2022-11-24T03:09:18.976Z,68.79
2022-11-24T03:14:22.077Z,68.99
2022-11-24T03:19:25.433Z,68.45
2022-11-24T03:24:28.548Z,67.83
2022-11-24T03:29:31.983Z,68.94
2022-11-24T03:34:35.375Z,69.00
2022-11-24T03:39:38.768Z,68.92
2022-11-24T03:44:41.936Z,69.53
2022-11-24T03:49:45.319Z,68.66
2022-11-24T03:54:48.497Z,67.73
2022-11-24T03:59:51.607Z,70.11
2022-11-24T04:04:54.671Z,69.21
2022-11-24T04:09:57.750Z,69.09
2022-11-24T04:15:00.788Z,69.31
2022-11-24T04:20:04.317Z,69.03
2022-11-24T04:25:08.376Z,67.78
2022-11-24T04:30:11.734Z,68.04
2022-11-24T04:35:15.110Z,67.76
2022-11-24T04:40:18.344Z,67.67
2022-11-24T04:45:21.854Z,67.27
2022-11-24T04:50:25.107Z,66.82
2022-11-24T04:55:28.131Z,67.16
2022-11-24T05:00:31.072Z,67.06
2022-11-24T05:05:34.014Z,65.58
2022-11-24T05:10:37.035Z,66.87
2022-11-24T05:15:42.149Z,65.83
2022-11-24T05:20:45.207Z,65.90
2022-11-24T05:25:48.193Z,64.64
2022-11-24T05:30:51.587Z,65.06
2022-11-24T05:35:54.918Z,64.54
2022-11-24T05:41:05.641Z,64.23
2022-11-24T05:46:08.642Z,64.88
2022-11-24T05:51:11.578Z,66.25
2022-11-24T05:56:14.610Z,66.17
2022-11-24T06:01:17.636Z,66.82
2022-11-24T06:06:20.669Z,68.30
2022-11-24T06:11:23.627Z,69.04
2022-11-24T06:16:26.851Z,68.85
2022-11-24T06:21:30.452Z,70.00
2022-11-24T06:26:33.410Z,68.87
2022-11-24T06:31:36.636Z,67.23
2022-11-24T06:36:40.323Z,66.77
2022-11-24T06:41:43.290Z,65.42
2022-11-24T06:46:46.379Z,66.07
2022-11-24T06:51:49.740Z,65.82
2022-11-24T06:56:57.591Z,65.94
2022-11-24T07:02:00.587Z,67.29
2022-11-24T07:07:03.586Z,67.51
2022-11-24T07:12:06.857Z,67.28
2022-11-24T07:17:10.455Z,65.10
2022-11-24T07:22:13.423Z,65.11
2022-11-24T07:27:16.468Z,64.86
2022-11-24T07:32:19.768Z,64.41
2022-11-24T07:37:25.563Z,65.24
2022-11-24T07:42:32.675Z,66.08
2022-11-24T07:47:39.526Z,65.44
2022-11-24T07:52:42.576Z,66.74
2022-11-24T07:57:45.678Z,65.60
2022-11-24T08:02:48.617Z,66.38
2022-11-24T08:07:51.705Z,65.80
2022-11-24T08:12:54.665Z,63.83
2022-11-24T08:18:01.884Z,64.66
2022-11-24T08:23:05.256Z,63.49
2022-11-24T08:28:08.221Z,61.96
2022-11-24T08:33:13.144Z,61.97
2022-11-24T08:38:17.646Z,61.49
2022-11-24T08:43:20.618Z,62.09
2022-11-24T08:48:39.309Z,61.99
2022-11-24T08:53:42.756Z,61.31
2022-11-24T08:58:45.883Z,61.04
2022-11-24T09:03:51.155Z,61.17
2022-11-24T09:08:55.964Z,60.13
2022-11-24T09:13:59.025Z,60.33
2022-11-24T09:19:04.258Z,59.85
2022-11-24T09:24:08.183Z,60.44
2022-11-24T09:29:11.312Z,59.51
2022-11-24T09:34:16.044Z,59.17
2022-11-24T09:39:19.031Z,58.82
2022-11-24T09:44:46.738Z,59.57
2022-11-24T09:50:03.562Z,59.05
2022-11-24T09:55:17.210Z,58.95
2022-11-24T10:00:20.397Z,59.74
2022-11-24T10:05:27.844Z,59.56
2022-11-24T10:10:55.049Z,60.04
2022-11-24T10:16:10.200Z,62.44
2022-11-24T10:21:48.758Z,59.85
2022-11-24T10:27:02.101Z,60.36
2022-11-24T10:32:27.634Z,61.40
2022-11-24T10:37:41.060Z,61.55
2022-11-24T10:42:44.148Z,62.07
2022-11-24T10:47:47.284Z,61.94
2022-11-24T10:53:10.427Z,60.97
2022-11-24T10:58:17.722Z,60.05
2022-11-24T11:03:25.586Z,59.86
2022-11-24T11:08:30.712Z,59.75
2022-11-24T11:13:33.671Z,60.58
2022-11-24T11:18:37.807Z,59.77
2022-11-24T11:23:45.108Z,60.08
2022-11-24T11:34:37.075Z,59.16
2022-11-24T11:39:48.622Z,58.72
2022-11-24T11:44:58.250Z,59.98
2022-11-24T11:50:01.344Z,60.13
2022-11-24T11:55:34.938Z,58.97
2022-11-24T12:00:46.357Z,58.88
2022-11-24T12:06:15.640Z,58.70
2022-11-24T12:11:43.708Z,59.28
2022-11-24T12:16:59.102Z,59.36
2022-11-24T12:22:22.819Z,60.30
2022-11-24T12:27:28.898Z,60.45
2022-11-24T12:32:57.932Z,59.75
2022-11-24T12:38:19.517Z,60.18
2022-11-24T12:43:32.966Z,59.53
2022-11-24T12:48:47.741Z,60.58
2022-11-24T12:53:53.989Z,60.41
2022-11-24T12:59:11.862Z,59.92
2022-11-24T13:04:40.434Z,59.76
2022-11-24T13:10:30.146Z,59.60
2022-11-24T13:21:48.312Z,60.75
2022-11-24T13:26:54.602Z,59.66
2022-11-24T13:32:03.519Z,59.21
2022-11-24T13:37:35.151Z,59.46
2022-11-24T13:43:03.185Z,60.27
2022-11-24T13:48:21.878Z,60.27
2022-11-24T13:53:49.241Z,59.49
2022-11-24T13:59:03.450Z,60.36
2022-11-24T14:04:33.840Z,60.46
2022-11-24T14:09:52.171Z,60.24
2022-11-24T14:15:24.766Z,60.48
2022-11-24T14:20:28.725Z,60.66
2022-11-24T14:25:32.746Z,60.12
2022-11-24T14:30:35.695Z,60.58
2022-11-24T14:35:44.948Z,60.81
2022-11-24T14:40:54.111Z,61.02
2022-11-24T14:46:09.547Z,61.05
2022-11-24T14:51:20.396Z,59.93
2022-11-24T14:56:36.523Z,59.83
2022-11-24T15:01:41.918Z,60.36
2022-11-24T15:07:21.951Z,60.26
2022-11-24T15:12:30.862Z,60.67
2022-11-24T15:17:34.412Z,59.87
2022-11-24T15:22:40.490Z,60.75
2022-11-24T15:27:43.425Z,60.54
2022-11-24T15:33:14.460Z,60.35
2022-11-24T15:38:17.886Z,60.14
2022-11-24T15:43:36.816Z,59.95
2022-11-24T15:48:40.153Z,60.15
2022-11-24T15:53:51.166Z,59.72
2022-11-24T15:58:55.412Z,60.36
2022-11-24T16:03:58.464Z,60.66
2022-11-24T16:09:01.901Z,60.11
2022-11-24T16:14:04.976Z,60.68
2022-11-24T16:19:09.724Z,60.27
2022-11-24T16:24:12.819Z,60.36
2022-11-24T16:29:15.803Z,60.23
2022-11-24T16:34:18.807Z,60.92
2022-11-24T16:39:21.813Z,61.19
2022-11-24T16:44:24.826Z,60.73
2022-11-24T16:49:27.762Z,61.14
2022-11-24T16:54:31.703Z,60.94
2022-11-24T16:59:35.077Z,61.09
2022-11-24T17:04:38.089Z,61.48
2022-11-24T17:09:41.070Z,61.02
2022-11-24T17:14:49.143Z,61.06
2022-11-24T17:20:07.545Z,60.60
2022-11-24T17:25:10.723Z,61.43
2022-11-24T17:30:14.107Z,60.84
2022-11-24T17:35:18.046Z,61.16
2022-11-24T17:40:28.519Z,61.54
2022-11-24T17:45:32.329Z,61.19
2022-11-24T17:50:35.371Z,61.48
2022-11-24T17:55:38.627Z,61.21
2022-11-24T18:00:41.628Z,61.61
2022-11-24T18:05:44.861Z,61.70
2022-11-24T18:10:47.899Z,61.30
2022-11-24T18:15:50.830Z,60.99
2022-11-24T18:20:58.824Z,61.34
2022-11-24T18:26:04.373Z,61.40
2022-11-24T18:31:10.451Z,61.26
2022-11-24T18:36:16.830Z,61.14
2022-11-24T18:41:20.284Z,60.79
2022-11-24T18:46:23.416Z,61.31
2022-11-24T18:51:27.420Z,61.96
2022-11-24T18:56:30.694Z,62.12
2022-11-24T19:01:33.764Z,61.62
2022-11-24T19:06:38.318Z,62.97
2022-11-24T19:11:43.496Z,61.87
2022-11-24T19:16:50.590Z,61.41
2022-11-24T19:21:53.530Z,61.33
2022-11-24T19:26:57.070Z,61.92
2022-11-24T19:32:00.037Z,61.64
2022-11-24T19:37:03.107Z,61.91
2022-11-24T19:42:06.147Z,61.94
2022-11-24T19:47:09.487Z,62.22
2022-11-24T19:52:12.499Z,62.11
2022-11-24T19:57:15.595Z,61.36
2022-11-24T20:02:18.682Z,61.84
2022-11-24T20:07:21.743Z,62.25
2022-11-24T20:12:24.757Z,62.02
2022-11-24T20:17:30.514Z,61.92
2022-11-24T20:22:33.509Z,62.40
2022-11-24T20:27:36.482Z,62.47
2022-11-24T20:32:39.462Z,63.46
2022-11-24T20:37:42.581Z,63.23
2022-11-24T20:42:45.545Z,62.96
2022-11-24T20:47:48.808Z,63.14
2022-11-24T20:52:51.735Z,62.27
2022-11-24T20:57:54.712Z,61.92
2022-11-24T21:02:58.802Z,62.04
2022-11-24T21:08:01.778Z,61.91
2022-11-24T21:13:04.801Z,62.40
2022-11-24T21:18:07.808Z,63.55
2022-11-24T21:23:11.040Z,62.70
2022-11-24T21:28:14.018Z,62.95
2022-11-24T21:33:17.367Z,62.29
2022-11-24T21:38:20.327Z,62.76
2022-11-24T21:43:23.259Z,62.70
2022-11-24T21:48:26.337Z,62.51
2022-11-24T21:53:34.724Z,62.36
2022-11-24T21:58:37.705Z,62.50
2022-11-24T22:03:41.741Z,62.11
2022-11-24T22:08:44.732Z,62.63
2022-11-24T22:13:48.410Z,62.91
2022-11-24T22:18:51.704Z,62.88
2022-11-24T22:23:54.622Z,62.40
2022-11-24T22:28:58.524Z,62.99
2022-11-24T22:34:01.552Z,63.20
2022-11-24T22:39:06.014Z,63.26
2022-11-24T22:44:09.093Z,62.94
2022-11-24T22:49:12.421Z,62.74
2022-11-24T22:54:15.355Z,63.38
2022-11-24T22:59:18.325Z,63.07
2022-11-24T23:04:21.333Z,63.23
2022-11-24T23:09:24.376Z,63.03
2022-11-24T23:14:29.031Z,63.49
2022-11-24T23:19:32.211Z,63.46
2022-11-24T23:24:38.411Z,63.72
2022-11-24T23:29:41.342Z,63.51
2022-11-24T23:34:44.552Z,63.84
2022-11-24T23:39:48.252Z,63.79
2022-11-24T23:44:51.183Z,63.72
2022-11-24T23:49:54.364Z,63.95
2022-11-24T23:54:57.440Z,63.84
